sensor_id;sensor_type;location;lat;lon;timestamp;P1;durP1;ratioP1;P2;durP2;ratioP2
75160;SDS011;67232;50.096;8.716;2023-01-30T00:00:51;7.13;;;0.68;;
75160;SDS011;67232;50.096;8.716;2023-01-30T00:03:20;5.88;;;0.10;;
75160;SDS011;67232;50.096;8.716;2023-01-30T00:05:46;4.72;;;0.03;;
75160;SDS011;67232;50.096;8.716;2023-01-30T00:08:15;6.15;;;0.38;;
75160;SDS011;67232;50.096;8.716;2023-01-30T00:10:41;6.68;;;0.38;;
75160;SDS011;67232;50.096;8.716;2023-01-30T00:13:09;6.07;;;0.20;;
75160;SDS011;67232;50.096;8.716;2023-01-30T00:15:36;4.97;;;0.40;;
75160;SDS011;67232;50.096;8.716;2023-01-30T00:18:02;7.50;;;0.40;;
75160;SDS011;67232;50.096;8.716;2023-01-30T00:20:28;8.30;;;0.65;;
75160;SDS011;67232;50.096;8.716;2023-01-30T00:22:56;6.63;;;0.57;;
75160;SDS011;67232;50.096;8.716;2023-01-30T00:25:25;7.68;;;0.32;;
75160;SDS011;67232;50.096;8.716;2023-01-30T00:27:51;12.10;;;0.65;;
75160;SDS011;67232;50.096;8.716;2023-01-30T00:30:16;5.53;;;0.25;;
75160;SDS011;67232;50.096;8.716;2023-01-30T00:32:42;8.50;;;0.20;;
75160;SDS011;67232;50.096;8.716;2023-01-30T00:35:10;7.47;;;0.52;;
75160;SDS011;67232;50.096;8.716;2023-01-30T00:37:38;9.52;;;0.63;;
75160;SDS011;67232;50.096;8.716;2023-01-30T00:40:03;8.10;;;0.73;;
75160;SDS011;67232;50.096;8.716;2023-01-30T00:42:32;5.88;;;0.28;;
75160;SDS011;67232;50.096;8.716;2023-01-30T00:45:18;7.80;;;0.60;;
75160;SDS011;67232;50.096;8.716;2023-01-30T00:48:05;9.32;;;0.70;;
75160;SDS011;67232;50.096;8.716;2023-01-30T00:50:33;8.80;;;0.20;;
75160;SDS011;67232;50.096;8.716;2023-01-30T00:53:10;6.40;;;0.32;;
75160;SDS011;67232;50.096;8.716;2023-01-30T00:55:37;7.65;;;0.43;;
75160;SDS011;67232;50.096;8.716;2023-01-30T00:58:08;5.57;;;0.15;;
75160;SDS011;67232;50.096;8.716;2023-01-30T01:00:36;5.95;;;0.45;;
75160;SDS011;67232;50.096;8.716;2023-01-30T01:03:04;11.18;;;0.85;;
75160;SDS011;67232;50.096;8.716;2023-01-30T01:05:30;5.20;;;0.20;;
75160;SDS011;67232;50.096;8.716;2023-01-30T01:07:58;5.82;;;0.20;;
75160;SDS011;67232;50.096;8.716;2023-01-30T01:10:24;8.60;;;0.82;;
75160;SDS011;67232;50.096;8.716;2023-01-30T01:12:51;4.20;;;0.25;;
75160;SDS011;67232;50.096;8.716;2023-01-30T01:15:20;7.60;;;0.32;;
75160;SDS011;67232;50.096;8.716;2023-01-30T01:17:50;5.90;;;0.70;;
75160;SDS011;67232;50.096;8.716;2023-01-30T01:20:16;7.20;;;0.40;;
75160;SDS011;67232;50.096;8.716;2023-01-30T01:22:43;7.50;;;0.30;;
75160;SDS011;67232;50.096;8.716;2023-01-30T01:25:09;6.38;;;0.30;;
75160;SDS011;67232;50.096;8.716;2023-01-30T01:27:36;5.03;;;0.38;;
75160;SDS011;67232;50.096;8.716;2023-01-30T01:30:02;9.13;;;0.68;;
75160;SDS011;67232;50.096;8.716;2023-01-30T01:32:33;5.18;;;0.57;;
75160;SDS011;67232;50.096;8.716;2023-01-30T01:35:06;8.20;;;0.43;;
75160;SDS011;67232;50.096;8.716;2023-01-30T01:37:34;9.07;;;0.55;;
75160;SDS011;67232;50.096;8.716;2023-01-30T01:40:00;6.28;;;0.43;;
75160;SDS011;67232;50.096;8.716;2023-01-30T01:42:44;5.57;;;0.30;;
75160;SDS011;67232;50.096;8.716;2023-01-30T01:47:38;5.60;;;0.40;;
75160;SDS011;67232;50.096;8.716;2023-01-30T01:50:13;6.53;;;0.40;;
75160;SDS011;67232;50.096;8.716;2023-01-30T01:52:53;6.60;;;0.15;;
75160;SDS011;67232;50.096;8.716;2023-01-30T01:55:24;3.88;;;0.10;;
75160;SDS011;67232;50.096;8.716;2023-01-30T01:57:59;5.72;;;0.20;;
75160;SDS011;67232;50.096;8.716;2023-01-30T02:00:33;5.80;;;0.43;;
75160;SDS011;67232;50.096;8.716;2023-01-30T02:03:02;10.85;;;0.47;;
75160;SDS011;67232;50.096;8.716;2023-01-30T02:05:32;6.90;;;0.10;;
75160;SDS011;67232;50.096;8.716;2023-01-30T02:08:03;6.82;;;0.20;;
75160;SDS011;67232;50.096;8.716;2023-01-30T02:13:09;7.53;;;0.20;;
75160;SDS011;67232;50.096;8.716;2023-01-30T02:15:35;7.50;;;0.63;;
75160;SDS011;67232;50.096;8.716;2023-01-30T02:18:03;9.13;;;0.63;;
75160;SDS011;67232;50.096;8.716;2023-01-30T02:32:33;8.00;;;0.20;;
75160;SDS011;67232;50.096;8.716;2023-01-30T02:41:20;8.75;;;0.20;;
75160;SDS011;67232;50.096;8.716;2023-01-30T02:44:03;6.05;;;0.22;;
75160;SDS011;67232;50.096;8.716;2023-01-30T02:46:39;9.23;;;0.50;;
75160;SDS011;67232;50.096;8.716;2023-01-30T02:49:19;5.28;;;0.20;;
75160;SDS011;67232;50.096;8.716;2023-01-30T02:51:54;7.93;;;0.47;;
75160;SDS011;67232;50.096;8.716;2023-01-30T02:54:22;6.75;;;0.30;;
75160;SDS011;67232;50.096;8.716;2023-01-30T02:56:53;6.30;;;0.30;;
75160;SDS011;67232;50.096;8.716;2023-01-30T02:59:30;10.13;;;0.50;;
75160;SDS011;67232;50.096;8.716;2023-01-30T03:05:09;7.55;;;0.10;;
75160;SDS011;67232;50.096;8.716;2023-01-30T03:07:53;5.65;;;0.10;;
75160;SDS011;67232;50.096;8.716;2023-01-30T03:15:47;5.72;;;0.30;;
75160;SDS011;67232;50.096;8.716;2023-01-30T03:18:15;5.95;;;0.45;;
75160;SDS011;67232;50.096;8.716;2023-01-30T03:20:41;5.68;;;0.65;;
75160;SDS011;67232;50.096;8.716;2023-01-30T03:23:12;6.53;;;0.20;;
75160;SDS011;67232;50.096;8.716;2023-01-30T03:25:40;7.72;;;0.55;;
75160;SDS011;67232;50.096;8.716;2023-01-30T03:28:07;5.53;;;0.20;;
75160;SDS011;67232;50.096;8.716;2023-01-30T03:30:38;4.20;;;0.13;;
75160;SDS011;67232;50.096;8.716;2023-01-30T03:33:06;6.50;;;0.43;;
75160;SDS011;67232;50.096;8.716;2023-01-30T03:35:34;5.78;;;0.30;;
75160;SDS011;67232;50.096;8.716;2023-01-30T03:38:05;6.05;;;0.20;;
75160;SDS011;67232;50.096;8.716;2023-01-30T03:40:33;4.60;;;0.47;;
75160;SDS011;67232;50.096;8.716;2023-01-30T03:42:58;7.88;;;0.55;;
75160;SDS011;67232;50.096;8.716;2023-01-30T03:45:28;10.35;;;1.13;;
75160;SDS011;67232;50.096;8.716;2023-01-30T03:47:56;7.72;;;0.60;;
75160;SDS011;67232;50.096;8.716;2023-01-30T03:50:21;7.25;;;0.40;;
75160;SDS011;67232;50.096;8.716;2023-01-30T03:52:47;6.40;;;0.38;;
75160;SDS011;67232;50.096;8.716;2023-01-30T03:55:12;7.82;;;0.40;;
75160;SDS011;67232;50.096;8.716;2023-01-30T03:57:40;6.35;;;0.25;;
75160;SDS011;67232;50.096;8.716;2023-01-30T04:00:11;5.03;;;0.20;;
75160;SDS011;67232;50.096;8.716;2023-01-30T04:02:37;7.72;;;0.45;;
75160;SDS011;67232;50.096;8.716;2023-01-30T04:05:02;7.63;;;0.50;;
75160;SDS011;67232;50.096;8.716;2023-01-30T04:07:29;7.70;;;0.40;;
75160;SDS011;67232;50.096;8.716;2023-01-30T04:09:57;6.45;;;0.30;;
75160;SDS011;67232;50.096;8.716;2023-01-30T04:12:22;7.70;;;0.40;;
75160;SDS011;67232;50.096;8.716;2023-01-30T04:14:48;6.68;;;0.68;;
75160;SDS011;67232;50.096;8.716;2023-01-30T04:17:14;7.13;;;0.30;;
75160;SDS011;67232;50.096;8.716;2023-01-30T04:19:39;6.40;;;0.70;;
75160;SDS011;67232;50.096;8.716;2023-01-30T04:22:05;7.25;;;0.88;;
75160;SDS011;67232;50.096;8.716;2023-01-30T04:24:30;5.20;;;0.22;;
75160;SDS011;67232;50.096;8.716;2023-01-30T04:26:56;5.93;;;0.40;;
75160;SDS011;67232;50.096;8.716;2023-01-30T04:29:21;6.00;;;0.38;;
75160;SDS011;67232;50.096;8.716;2023-01-30T04:31:49;7.32;;;0.30;;
75160;SDS011;67232;50.096;8.716;2023-01-30T04:34:14;5.60;;;0.47;;
75160;SDS011;67232;50.096;8.716;2023-01-30T04:36:40;6.72;;;0.45;;
75160;SDS011;67232;50.096;8.716;2023-01-30T04:39:08;3.92;;;0.22;;
75160;SDS011;67232;50.096;8.716;2023-01-30T04:41:34;5.93;;;0.50;;
75160;SDS011;67232;50.096;8.716;2023-01-30T04:44:01;6.38;;;0.20;;
75160;SDS011;67232;50.096;8.716;2023-01-30T04:46:29;8.63;;;0.10;;
75160;SDS011;67232;50.096;8.716;2023-01-30T04:48:57;8.02;;;0.63;;
75160;SDS011;67232;50.096;8.716;2023-01-30T04:51:23;8.60;;;0.43;;
75160;SDS011;67232;50.096;8.716;2023-01-30T04:53:48;7.28;;;0.35;;
75160;SDS011;67232;50.096;8.716;2023-01-30T04:56:16;7.22;;;0.60;;
75160;SDS011;67232;50.096;8.716;2023-01-30T04:58:44;14.65;;;1.65;;
75160;SDS011;67232;50.096;8.716;2023-01-30T05:03:48;7.20;;;0.55;;
75160;SDS011;67232;50.096;8.716;2023-01-30T05:06:17;8.15;;;1.23;;
75160;SDS011;67232;50.096;8.716;2023-01-30T05:08:43;4.78;;;0.50;;
75160;SDS011;67232;50.096;8.716;2023-01-30T05:11:13;9.40;;;0.60;;
75160;SDS011;67232;50.096;8.716;2023-01-30T05:13:39;14.25;;;1.48;;
75160;SDS011;67232;50.096;8.716;2023-01-30T05:16:07;6.38;;;0.50;;
75160;SDS011;67232;50.096;8.716;2023-01-30T05:18:35;7.53;;;0.55;;
75160;SDS011;67232;50.096;8.716;2023-01-30T05:21:10;7.43;;;0.60;;
75160;SDS011;67232;50.096;8.716;2023-01-30T05:23:39;9.38;;;0.93;;
75160;SDS011;67232;50.096;8.716;2023-01-30T05:26:05;7.45;;;1.05;;
75160;SDS011;67232;50.096;8.716;2023-01-30T05:28:35;7.82;;;0.43;;
75160;SDS011;67232;50.096;8.716;2023-01-30T05:31:04;6.10;;;0.30;;
75160;SDS011;67232;50.096;8.716;2023-01-30T05:33:31;6.00;;;0.55;;
75160;SDS011;67232;50.096;8.716;2023-01-30T05:35:59;4.80;;;0.20;;
75160;SDS011;67232;50.096;8.716;2023-01-30T05:38:25;6.18;;;0.20;;
75160;SDS011;67232;50.096;8.716;2023-01-30T05:41:01;9.68;;;0.57;;
75160;SDS011;67232;50.096;8.716;2023-01-30T05:43:32;8.13;;;1.02;;
75160;SDS011;67232;50.096;8.716;2023-01-30T05:46:03;10.20;;;0.60;;
75160;SDS011;67232;50.096;8.716;2023-01-30T05:48:33;6.60;;;0.60;;
75160;SDS011;67232;50.096;8.716;2023-01-30T05:51:00;10.27;;;0.98;;
75160;SDS011;67232;50.096;8.716;2023-01-30T05:53:27;9.70;;;0.98;;
75160;SDS011;67232;50.096;8.716;2023-01-30T05:56:01;10.55;;;0.47;;
75160;SDS011;67232;50.096;8.716;2023-01-30T05:58:28;6.22;;;0.52;;
75160;SDS011;67232;50.096;8.716;2023-01-30T06:00:58;6.22;;;0.13;;
75160;SDS011;67232;50.096;8.716;2023-01-30T06:03:28;5.03;;;0.38;;
75160;SDS011;67232;50.096;8.716;2023-01-30T06:05:54;6.60;;;0.70;;
75160;SDS011;67232;50.096;8.716;2023-01-30T06:08:19;8.45;;;1.10;;
75160;SDS011;67232;50.096;8.716;2023-01-30T06:10:47;4.95;;;0.20;;
75160;SDS011;67232;50.096;8.716;2023-01-30T06:13:13;9.30;;;0.60;;
75160;SDS011;67232;50.096;8.716;2023-01-30T06:15:38;6.97;;;0.43;;
75160;SDS011;67232;50.096;8.716;2023-01-30T06:18:04;8.15;;;0.85;;
75160;SDS011;67232;50.096;8.716;2023-01-30T06:20:32;8.55;;;0.93;;
75160;SDS011;67232;50.096;8.716;2023-01-30T06:22:57;6.35;;;0.40;;
75160;SDS011;67232;50.096;8.716;2023-01-30T06:25:23;5.85;;;0.50;;
75160;SDS011;67232;50.096;8.716;2023-01-30T06:27:49;7.45;;;0.30;;
75160;SDS011;67232;50.096;8.716;2023-01-30T06:30:16;9.43;;;0.57;;
75160;SDS011;67232;50.096;8.716;2023-01-30T06:32:42;11.05;;;0.52;;
75160;SDS011;67232;50.096;8.716;2023-01-30T06:35:10;5.75;;;0.85;;
75160;SDS011;67232;50.096;8.716;2023-01-30T06:37:38;6.53;;;0.52;;
75160;SDS011;67232;50.096;8.716;2023-01-30T06:40:08;6.63;;;0.47;;
75160;SDS011;67232;50.096;8.716;2023-01-30T06:42:34;6.78;;;0.25;;
75160;SDS011;67232;50.096;8.716;2023-01-30T06:45:02;7.53;;;0.28;;
75160;SDS011;67232;50.096;8.716;2023-01-30T06:47:28;5.70;;;0.28;;
75160;SDS011;67232;50.096;8.716;2023-01-30T06:49:53;3.97;;;0.10;;
75160;SDS011;67232;50.096;8.716;2023-01-30T06:52:19;4.60;;;0.30;;
75160;SDS011;67232;50.096;8.716;2023-01-30T06:54:44;7.88;;;0.47;;
75160;SDS011;67232;50.096;8.716;2023-01-30T06:57:12;7.43;;;0.57;;
75160;SDS011;67232;50.096;8.716;2023-01-30T06:59:38;7.50;;;0.43;;
75160;SDS011;67232;50.096;8.716;2023-01-30T07:02:03;10.68;;;0.68;;
75160;SDS011;67232;50.096;8.716;2023-01-30T07:04:29;4.85;;;0.20;;
75160;SDS011;67232;50.096;8.716;2023-01-30T07:06:54;4.40;;;0.17;;
75160;SDS011;67232;50.096;8.716;2023-01-30T07:09:22;3.58;;;0.00;;
75160;SDS011;67232;50.096;8.716;2023-01-30T07:11:50;8.05;;;0.20;;
75160;SDS011;67232;50.096;8.716;2023-01-30T07:14:18;5.22;;;0.15;;
75160;SDS011;67232;50.096;8.716;2023-01-30T07:16:46;5.10;;;0.20;;
75160;SDS011;67232;50.096;8.716;2023-01-30T07:19:11;6.25;;;0.20;;
75160;SDS011;67232;50.096;8.716;2023-01-30T07:21:37;5.82;;;0.08;;
75160;SDS011;67232;50.096;8.716;2023-01-30T07:24:04;3.25;;;0.20;;
75160;SDS011;67232;50.096;8.716;2023-01-30T07:26:33;3.33;;;0.13;;
75160;SDS011;67232;50.096;8.716;2023-01-30T07:28:59;5.78;;;0.20;;
75160;SDS011;67232;50.096;8.716;2023-01-30T07:31:24;6.78;;;0.57;;
75160;SDS011;67232;50.096;8.716;2023-01-30T07:33:52;4.15;;;0.30;;
75160;SDS011;67232;50.096;8.716;2023-01-30T07:36:21;2.83;;;0.20;;
75160;SDS011;67232;50.096;8.716;2023-01-30T07:38:47;4.25;;;0.20;;
75160;SDS011;67232;50.096;8.716;2023-01-30T07:41:13;4.93;;;0.20;;
75160;SDS011;67232;50.096;8.716;2023-01-30T07:43:44;2.38;;;0.00;;
75160;SDS011;67232;50.096;8.716;2023-01-30T07:46:11;5.88;;;0.15;;
75160;SDS011;67232;50.096;8.716;2023-01-30T07:48:37;6.68;;;0.32;;
75160;SDS011;67232;50.096;8.716;2023-01-30T07:51:02;4.97;;;0.30;;
75160;SDS011;67232;50.096;8.716;2023-01-30T07:53:30;6.25;;;0.32;;
75160;SDS011;67232;50.096;8.716;2023-01-30T07:55:56;3.28;;;0.13;;
75160;SDS011;67232;50.096;8.716;2023-01-30T07:58:23;6.68;;;0.22;;
75160;SDS011;67232;50.096;8.716;2023-01-30T08:00:53;3.47;;;0.08;;
75160;SDS011;67232;50.096;8.716;2023-01-30T08:03:21;5.50;;;0.40;;
75160;SDS011;67232;50.096;8.716;2023-01-30T08:05:49;8.27;;;0.22;;
75160;SDS011;67232;50.096;8.716;2023-01-30T08:08:15;6.18;;;0.10;;
75160;SDS011;67232;50.096;8.716;2023-01-30T08:10:41;4.00;;;0.00;;
75160;SDS011;67232;50.096;8.716;2023-01-30T08:13:07;4.63;;;0.20;;
75160;SDS011;67232;50.096;8.716;2023-01-30T08:15:32;4.65;;;0.17;;
75160;SDS011;67232;50.096;8.716;2023-01-30T08:18:01;6.90;;;0.20;;
75160;SDS011;67232;50.096;8.716;2023-01-30T08:20:33;5.88;;;0.30;;
75160;SDS011;67232;50.096;8.716;2023-01-30T08:23:02;3.33;;;0.10;;
75160;SDS011;67232;50.096;8.716;2023-01-30T08:25:28;4.90;;;0.00;;
75160;SDS011;67232;50.096;8.716;2023-01-30T08:27:57;6.45;;;0.08;;
75160;SDS011;67232;50.096;8.716;2023-01-30T08:30:24;5.07;;;0.10;;
75160;SDS011;67232;50.096;8.716;2023-01-30T08:32:49;5.55;;;0.40;;
75160;SDS011;67232;50.096;8.716;2023-01-30T08:35:19;4.03;;;0.10;;
75160;SDS011;67232;50.096;8.716;2023-01-30T08:37:47;1.90;;;0.00;;
75160;SDS011;67232;50.096;8.716;2023-01-30T08:40:15;5.50;;;0.35;;
75160;SDS011;67232;50.096;8.716;2023-01-30T08:42:44;4.22;;;0.28;;
75160;SDS011;67232;50.096;8.716;2023-01-30T08:45:10;11.25;;;0.90;;
75160;SDS011;67232;50.096;8.716;2023-01-30T08:47:38;4.68;;;0.00;;
75160;SDS011;67232;50.096;8.716;2023-01-30T08:50:04;4.22;;;0.22;;
75160;SDS011;67232;50.096;8.716;2023-01-30T08:52:31;4.03;;;0.13;;
75160;SDS011;67232;50.096;8.716;2023-01-30T08:54:59;7.82;;;0.30;;
75160;SDS011;67232;50.096;8.716;2023-01-30T08:57:27;4.78;;;0.22;;
75160;SDS011;67232;50.096;8.716;2023-01-30T08:59:53;4.82;;;0.30;;
75160;SDS011;67232;50.096;8.716;2023-01-30T09:02:18;4.80;;;0.28;;
75160;SDS011;67232;50.096;8.716;2023-01-30T09:04:44;2.90;;;0.15;;
75160;SDS011;67232;50.096;8.716;2023-01-30T09:07:12;5.65;;;0.10;;
75160;SDS011;67232;50.096;8.716;2023-01-30T09:09:37;3.05;;;0.00;;
75160;SDS011;67232;50.096;8.716;2023-01-30T09:12:07;4.78;;;0.32;;
75160;SDS011;67232;50.096;8.716;2023-01-30T09:14:33;3.33;;;0.03;;
75160;SDS011;67232;50.096;8.716;2023-01-30T09:16:58;2.92;;;0.00;;
75160;SDS011;67232;50.096;8.716;2023-01-30T09:19:27;3.20;;;0.05;;
75160;SDS011;67232;50.096;8.716;2023-01-30T09:21:53;4.25;;;0.00;;
75160;SDS011;67232;50.096;8.716;2023-01-30T09:24:22;4.28;;;0.00;;
75160;SDS011;67232;50.096;8.716;2023-01-30T09:26:52;3.08;;;0.00;;
75160;SDS011;67232;50.096;8.716;2023-01-30T09:29:27;4.00;;;0.10;;
75160;SDS011;67232;50.096;8.716;2023-01-30T09:31:55;4.75;;;0.20;;
75160;SDS011;67232;50.096;8.716;2023-01-30T09:34:21;1.60;;;0.00;;
75160;SDS011;67232;50.096;8.716;2023-01-30T09:36:53;4.05;;;0.00;;
75160;SDS011;67232;50.096;8.716;2023-01-30T09:39:26;3.08;;;0.10;;
75160;SDS011;67232;50.096;8.716;2023-01-30T09:51:03;3.25;;;0.05;;
75160;SDS011;67232;50.096;8.716;2023-01-30T09:56:40;2.70;;;0.00;;
75160;SDS011;67232;50.096;8.716;2023-01-30T09:59:22;1.33;;;0.00;;
75160;SDS011;67232;50.096;8.716;2023-01-30T10:04:41;1.75;;;0.00;;
75160;SDS011;67232;50.096;8.716;2023-01-30T10:12:19;2.33;;;0.00;;
75160;SDS011;67232;50.096;8.716;2023-01-30T10:15:13;0.90;;;0.00;;
75160;SDS011;67232;50.096;8.716;2023-01-30T10:18:03;2.05;;;0.00;;
75160;SDS011;67232;50.096;8.716;2023-01-30T10:20:44;1.75;;;0.00;;
75160;SDS011;67232;50.096;8.716;2023-01-30T10:26:20;0.98;;;0.00;;
75160;SDS011;67232;50.096;8.716;2023-01-30T10:31:29;1.08;;;0.00;;
75160;SDS011;67232;50.096;8.716;2023-01-30T10:34:02;1.05;;;0.00;;
75160;SDS011;67232;50.096;8.716;2023-01-30T10:36:41;0.47;;;0.00;;
75160;SDS011;67232;50.096;8.716;2023-01-30T10:39:36;1.38;;;0.00;;
75160;SDS011;67232;50.096;8.716;2023-01-30T10:45:10;1.27;;;0.00;;
75160;SDS011;67232;50.096;8.716;2023-01-30T10:47:52;0.38;;;0.00;;
75160;SDS011;67232;50.096;8.716;2023-01-30T10:50:49;0.52;;;0.00;;
75160;SDS011;67232;50.096;8.716;2023-01-30T10:53:29;0.28;;;0.00;;
75160;SDS011;67232;50.096;8.716;2023-01-30T10:56:07;0.30;;;0.00;;
75160;SDS011;67232;50.096;8.716;2023-01-30T11:01:36;0.40;;;0.00;;
75160;SDS011;67232;50.096;8.716;2023-01-30T11:04:13;0.65;;;0.00;;
75160;SDS011;67232;50.096;8.716;2023-01-30T11:06:53;0.38;;;0.00;;
75160;SDS011;67232;50.096;8.716;2023-01-30T11:09:23;0.17;;;0.00;;
75160;SDS011;67232;50.096;8.716;2023-01-30T11:11:52;0.80;;;0.00;;
75160;SDS011;67232;50.096;8.716;2023-01-30T11:14:19;0.30;;;0.00;;
75160;SDS011;67232;50.096;8.716;2023-01-30T11:19:30;0.30;;;0.00;;
75160;SDS011;67232;50.096;8.716;2023-01-30T11:22:04;0.80;;;0.00;;
75160;SDS011;67232;50.096;8.716;2023-01-30T11:24:40;0.60;;;0.00;;
75160;SDS011;67232;50.096;8.716;2023-01-30T11:29:42;0.45;;;0.00;;
75160;SDS011;67232;50.096;8.716;2023-01-30T11:32:18;0.20;;;0.00;;
75160;SDS011;67232;50.096;8.716;2023-01-30T11:37:30;0.45;;;0.00;;
75160;SDS011;67232;50.096;8.716;2023-01-30T11:40:00;0.17;;;0.00;;
75160;SDS011;67232;50.096;8.716;2023-01-30T11:42:46;4.88;;;0.20;;
75160;SDS011;67232;50.096;8.716;2023-01-30T11:45:16;0.68;;;0.00;;
75160;SDS011;67232;50.096;8.716;2023-01-30T11:48:11;0.43;;;0.00;;
75160;SDS011;67232;50.096;8.716;2023-01-30T11:50:38;0.55;;;0.00;;
75160;SDS011;67232;50.096;8.716;2023-01-30T11:53:42;0.22;;;0.00;;
75160;SDS011;67232;50.096;8.716;2023-01-30T11:58:44;0.52;;;0.00;;
75160;SDS011;67232;50.096;8.716;2023-01-30T12:01:30;0.22;;;0.00;;
75160;SDS011;67232;50.096;8.716;2023-01-30T12:03:58;0.52;;;0.00;;
75160;SDS011;67232;50.096;8.716;2023-01-30T12:06:35;0.35;;;0.00;;
75160;SDS011;67232;50.096;8.716;2023-01-30T12:09:08;0.28;;;0.00;;
75160;SDS011;67232;50.096;8.716;2023-01-30T12:12:00;0.80;;;0.00;;
75160;SDS011;67232;50.096;8.716;2023-01-30T12:24:53;0.25;;;0.00;;
75160;SDS011;67232;50.096;8.716;2023-01-30T12:27:51;0.85;;;0.00;;
75160;SDS011;67232;50.096;8.716;2023-01-30T12:33:09;1.15;;;0.00;;
75160;SDS011;67232;50.096;8.716;2023-01-30T12:35:53;0.98;;;0.00;;
75160;SDS011;67232;50.096;8.716;2023-01-30T12:44:45;0.40;;;0.00;;
75160;SDS011;67232;50.096;8.716;2023-01-30T12:58:18;1.90;;;0.00;;
75160;SDS011;67232;50.096;8.716;2023-01-30T13:27:51;1.08;;;0.00;;
75160;SDS011;67232;50.096;8.716;2023-01-30T13:30:22;0.90;;;0.00;;
75160;SDS011;67232;50.096;8.716;2023-01-30T13:32:52;2.63;;;0.00;;
75160;SDS011;67232;50.096;8.716;2023-01-30T13:35:26;0.63;;;0.00;;
75160;SDS011;67232;50.096;8.716;2023-01-30T13:38:03;0.73;;;0.00;;
75160;SDS011;67232;50.096;8.716;2023-01-30T13:40:35;0.30;;;0.00;;
75160;SDS011;67232;50.096;8.716;2023-01-30T13:45:50;0.60;;;0.00;;
75160;SDS011;67232;50.096;8.716;2023-01-30T13:48:28;0.55;;;0.00;;
75160;SDS011;67232;50.096;8.716;2023-01-30T13:51:11;2.33;;;0.00;;
75160;SDS011;67232;50.096;8.716;2023-01-30T13:54:01;2.30;;;0.00;;
75160;SDS011;67232;50.096;8.716;2023-01-30T13:59:28;2.03;;;0.00;;
75160;SDS011;67232;50.096;8.716;2023-01-30T14:02:20;1.13;;;0.00;;
75160;SDS011;67232;50.096;8.716;2023-01-30T14:04:55;0.00;;;0.00;;
75160;SDS011;67232;50.096;8.716;2023-01-30T14:07:28;0.63;;;0.00;;
75160;SDS011;67232;50.096;8.716;2023-01-30T14:12:25;0.47;;;0.00;;
75160;SDS011;67232;50.096;8.716;2023-01-30T14:15:09;1.20;;;0.00;;
75160;SDS011;67232;50.096;8.716;2023-01-30T14:20:24;1.83;;;0.00;;
75160;SDS011;67232;50.096;8.716;2023-01-30T14:23:02;1.08;;;0.00;;
75160;SDS011;67232;50.096;8.716;2023-01-30T14:25:31;0.80;;;0.00;;
75160;SDS011;67232;50.096;8.716;2023-01-30T14:32:59;0.65;;;0.00;;
75160;SDS011;67232;50.096;8.716;2023-01-30T14:35:27;0.52;;;0.00;;
75160;SDS011;67232;50.096;8.716;2023-01-30T14:38:30;1.42;;;0.00;;
75160;SDS011;67232;50.096;8.716;2023-01-30T14:46:05;1.88;;;0.00;;
75160;SDS011;67232;50.096;8.716;2023-01-30T14:59:20;0.40;;;0.00;;
75160;SDS011;67232;50.096;8.716;2023-01-30T15:01:58;1.65;;;0.00;;
75160;SDS011;67232;50.096;8.716;2023-01-30T15:23:47;1.70;;;0.00;;
75160;SDS011;67232;50.096;8.716;2023-01-30T15:31:26;1.55;;;0.00;;
75160;SDS011;67232;50.096;8.716;2023-01-30T15:33:53;1.42;;;0.00;;
75160;SDS011;67232;50.096;8.716;2023-01-30T15:36:31;1.70;;;0.00;;
75160;SDS011;67232;50.096;8.716;2023-01-30T15:39:05;2.03;;;0.00;;
75160;SDS011;67232;50.096;8.716;2023-01-30T15:41:43;2.63;;;0.00;;
75160;SDS011;67232;50.096;8.716;2023-01-30T15:50:00;1.77;;;0.00;;
75160;SDS011;67232;50.096;8.716;2023-01-30T15:52:34;1.63;;;0.00;;
75160;SDS011;67232;50.096;8.716;2023-01-30T15:55:04;1.95;;;0.00;;
75160;SDS011;67232;50.096;8.716;2023-01-30T15:57:32;1.25;;;0.00;;
75160;SDS011;67232;50.096;8.716;2023-01-30T16:00:01;3.30;;;0.00;;
75160;SDS011;67232;50.096;8.716;2023-01-30T16:02:33;1.92;;;0.00;;
75160;SDS011;67232;50.096;8.716;2023-01-30T16:05:12;1.30;;;0.00;;
75160;SDS011;67232;50.096;8.716;2023-01-30T16:07:41;4.88;;;0.00;;
75160;SDS011;67232;50.096;8.716;2023-01-30T16:10:42;2.55;;;0.00;;
75160;SDS011;67232;50.096;8.716;2023-01-30T16:13:07;1.80;;;0.00;;
75160;SDS011;67232;50.096;8.716;2023-01-30T16:15:37;3.45;;;0.00;;
75160;SDS011;67232;50.096;8.716;2023-01-30T16:18:21;1.98;;;0.00;;
75160;SDS011;67232;50.096;8.716;2023-01-30T16:21:16;1.75;;;0.00;;
75160;SDS011;67232;50.096;8.716;2023-01-30T16:23:52;3.45;;;0.00;;
75160;SDS011;67232;50.096;8.716;2023-01-30T16:26:22;1.75;;;0.00;;
75160;SDS011;67232;50.096;8.716;2023-01-30T16:28:48;4.25;;;0.00;;
75160;SDS011;67232;50.096;8.716;2023-01-30T16:31:16;1.48;;;0.00;;
75160;SDS011;67232;50.096;8.716;2023-01-30T16:33:49;2.90;;;0.00;;
75160;SDS011;67232;50.096;8.716;2023-01-30T16:38:46;1.55;;;0.00;;
75160;SDS011;67232;50.096;8.716;2023-01-30T16:41:29;5.03;;;0.00;;
75160;SDS011;67232;50.096;8.716;2023-01-30T16:49:14;1.88;;;0.00;;
75160;SDS011;67232;50.096;8.716;2023-01-30T16:51:47;3.35;;;0.00;;
75160;SDS011;67232;50.096;8.716;2023-01-30T16:54:19;3.00;;;0.00;;
75160;SDS011;67232;50.096;8.716;2023-01-30T16:56:49;3.70;;;0.00;;
75160;SDS011;67232;50.096;8.716;2023-01-30T16:59:19;3.88;;;0.00;;
75160;SDS011;67232;50.096;8.716;2023-01-30T17:01:49;4.05;;;0.00;;
75160;SDS011;67232;50.096;8.716;2023-01-30T17:04:21;1.58;;;0.00;;
75160;SDS011;67232;50.096;8.716;2023-01-30T17:07:17;0.45;;;0.00;;
75160;SDS011;67232;50.096;8.716;2023-01-30T17:09:54;4.40;;;0.00;;
75160;SDS011;67232;50.096;8.716;2023-01-30T17:17:41;1.90;;;0.00;;
75160;SDS011;67232;50.096;8.716;2023-01-30T17:20:07;1.95;;;0.00;;
75160;SDS011;67232;50.096;8.716;2023-01-30T17:22:34;5.35;;;0.00;;
75160;SDS011;67232;50.096;8.716;2023-01-30T17:25:06;2.92;;;0.00;;
75160;SDS011;67232;50.096;8.716;2023-01-30T17:27:41;4.57;;;0.00;;
75160;SDS011;67232;50.096;8.716;2023-01-30T17:30:11;1.65;;;0.00;;
75160;SDS011;67232;50.096;8.716;2023-01-30T17:32:40;4.55;;;0.00;;
75160;SDS011;67232;50.096;8.716;2023-01-30T17:35:06;3.42;;;0.00;;
75160;SDS011;67232;50.096;8.716;2023-01-30T17:37:31;1.45;;;0.00;;
75160;SDS011;67232;50.096;8.716;2023-01-30T17:39:57;4.68;;;0.00;;
75160;SDS011;67232;50.096;8.716;2023-01-30T17:42:23;3.85;;;0.00;;
75160;SDS011;67232;50.096;8.716;2023-01-30T17:44:48;3.63;;;0.00;;
75160;SDS011;67232;50.096;8.716;2023-01-30T17:47:17;2.22;;;0.00;;
75160;SDS011;67232;50.096;8.716;2023-01-30T17:49:44;2.95;;;0.00;;
75160;SDS011;67232;50.096;8.716;2023-01-30T17:52:11;3.33;;;0.00;;
75160;SDS011;67232;50.096;8.716;2023-01-30T17:54:37;1.90;;;0.00;;
75160;SDS011;67232;50.096;8.716;2023-01-30T17:57:06;4.82;;;0.00;;
75160;SDS011;67232;50.096;8.716;2023-01-30T17:59:36;3.50;;;0.00;;
75160;SDS011;67232;50.096;8.716;2023-01-30T18:02:01;4.47;;;0.00;;
75160;SDS011;67232;50.096;8.716;2023-01-30T18:04:30;1.77;;;0.00;;
75160;SDS011;67232;50.096;8.716;2023-01-30T18:06:59;3.75;;;0.00;;
75160;SDS011;67232;50.096;8.716;2023-01-30T18:09:28;2.30;;;0.00;;
75160;SDS011;67232;50.096;8.716;2023-01-30T18:11:57;2.85;;;0.00;;
75160;SDS011;67232;50.096;8.716;2023-01-30T18:14:22;5.30;;;0.00;;
75160;SDS011;67232;50.096;8.716;2023-01-30T18:16:48;2.50;;;0.00;;
75160;SDS011;67232;50.096;8.716;2023-01-30T18:19:14;2.90;;;0.00;;
75160;SDS011;67232;50.096;8.716;2023-01-30T18:21:48;1.08;;;0.00;;
75160;SDS011;67232;50.096;8.716;2023-01-30T18:24:13;1.08;;;0.00;;
75160;SDS011;67232;50.096;8.716;2023-01-30T18:26:39;4.57;;;0.00;;
75160;SDS011;67232;50.096;8.716;2023-01-30T18:29:07;2.13;;;0.00;;
75160;SDS011;67232;50.096;8.716;2023-01-30T18:31:33;5.15;;;0.00;;
75160;SDS011;67232;50.096;8.716;2023-01-30T18:33:59;5.65;;;0.00;;
75160;SDS011;67232;50.096;8.716;2023-01-30T18:36:25;4.30;;;0.00;;